This is the latest recevied weather packets stored in our database for station/object OK1VCF-8. If no packets are shown the sender has not sent any weather packets the latest 10 day(s).
| Time | Temp. | Humidity | Pressure | Rain* | Wind** | Luminosity | Snow |
|---|---|---|---|---|---|---|---|
| 1777612884 | 6.67° C | 67% | 1030.8 hPa | - | - | - | - |
| 1777612445 | 5.56° C | 68% | 1030.8 hPa | - | - | - | - |
| 1777612009 | 5.56° C | 68% | 1030.8 hPa | - | - | - | - |
| 1777611405 | 5.56° C | 70% | 1030.8 hPa | - | - | - | - |
| 1777610968 | 5° C | 72% | 1030.7 hPa | - | - | - | - |
| 1777610529 | 5° C | 72% | 1030.7 hPa | - | - | - | - |
| 1777610090 | 4.44° C | 72% | 1030.7 hPa | - | - | - | - |
| 1777609652 | 5.56° C | 70% | 1030.8 hPa | - | - | - | - |
| 1777609214 | 5.56° C | 67% | 1030.8 hPa | - | - | - | - |
| 1777608776 | 6.11° C | 70% | 1030.6 hPa | - | - | - | - |
| 1777608338 | 4.44° C | 75% | 1030.6 hPa | - | - | - | - |
| 1777607900 | 3.89° C | 75% | 1030.6 hPa | - | - | - | - |
| 1777607463 | 3.33° C | 76% | 1030.6 hPa | - | - | - | - |
| 1777607025 | 3.33° C | 78% | 1030.6 hPa | - | - | - | - |
| 1777606587 | 3.33° C | 76% | 1030.6 hPa | - | - | - | - |
| 1777606148 | 3.33° C | 77% | 1030.6 hPa | - | - | - | - |
| 1777605711 | 3.33° C | 76% | 1030.6 hPa | - | - | - | - |
| 1777605272 | 3.33° C | 76% | 1030.5 hPa | - | - | - | - |
| 1777604672 | 3.33° C | 76% | 1030.6 hPa | - | - | - | - |
| 1777604232 | 3.33° C | 76% | 1030.5 hPa | - | - | - | - |
| 1777603794 | 4.44° C | 74% | 1030.4 hPa | - | - | - | - |
| 1777603357 | 3.33° C | 76% | 1030.4 hPa | - | - | - | - |
| 1777602918 | 3.33° C | 76% | 1030.3 hPa | - | - | - | - |
| 1777602480 | 3.89° C | 74% | 1030.4 hPa | - | - | - | - |
| 1777602042 | 4.44° C | 74% | 1030.4 hPa | - | - | - | - |
* Rain since midnight (hover to see other rain measurements)
** Current wind speed in m/s (hover to see current wind gust speed)